sensor_id;sensor_type;location;lat;lon;timestamp;P1;durP1;ratioP1;P2;durP2;ratioP2
6177;SDS011;3122;48.208;11.174;2022-12-15T00:01:20;37.97;;;20.53;;
6177;SDS011;3122;48.208;11.174;2022-12-15T00:06:39;39.07;;;21.20;;
6177;SDS011;3122;48.208;11.174;2022-12-15T00:11:58;39.20;;;20.77;;
6177;SDS011;3122;48.208;11.174;2022-12-15T00:17:18;39.23;;;21.47;;
6177;SDS011;3122;48.208;11.174;2022-12-15T00:22:37;39.27;;;20.70;;
6177;SDS011;3122;48.208;11.174;2022-12-15T00:27:56;39.57;;;20.93;;
6177;SDS011;3122;48.208;11.174;2022-12-15T00:33:15;38.93;;;20.30;;
6177;SDS011;3122;48.208;11.174;2022-12-15T00:38:34;37.67;;;20.60;;
6177;SDS011;3122;48.208;11.174;2022-12-15T00:43:42;42.77;;;21.87;;
6177;SDS011;3122;48.208;11.174;2022-12-15T00:48:43;37.30;;;20.27;;
6177;SDS011;3122;48.208;11.174;2022-12-15T00:53:45;39.03;;;20.00;;
6177;SDS011;3122;48.208;11.174;2022-12-15T00:59:04;40.23;;;21.30;;
6177;SDS011;3122;48.208;11.174;2022-12-15T01:04:23;41.60;;;20.80;;
6177;SDS011;3122;48.208;11.174;2022-12-15T01:09:43;37.10;;;20.33;;
6177;SDS011;3122;48.208;11.174;2022-12-15T01:15:02;37.40;;;19.47;;
6177;SDS011;3122;48.208;11.174;2022-12-15T01:20:22;36.73;;;20.33;;
6177;SDS011;3122;48.208;11.174;2022-12-15T01:25:23;38.77;;;20.67;;
6177;SDS011;3122;48.208;11.174;2022-12-15T01:30:25;40.07;;;20.80;;
6177;SDS011;3122;48.208;11.174;2022-12-15T01:35:25;36.97;;;19.83;;
6177;SDS011;3122;48.208;11.174;2022-12-15T01:40:26;40.90;;;20.00;;
6177;SDS011;3122;48.208;11.174;2022-12-15T01:45:46;36.23;;;19.80;;
6177;SDS011;3122;48.208;11.174;2022-12-15T01:51:13;42.33;;;21.30;;
6177;SDS011;3122;48.208;11.174;2022-12-15T01:56:14;42.77;;;22.10;;
6177;SDS011;3122;48.208;11.174;2022-12-15T02:01:16;37.30;;;20.50;;
6177;SDS011;3122;48.208;11.174;2022-12-15T02:06:17;33.80;;;18.30;;
6177;SDS011;3122;48.208;11.174;2022-12-15T02:11:25;38.60;;;20.47;;
6177;SDS011;3122;48.208;11.174;2022-12-15T02:38:08;36.90;;;18.87;;
6177;SDS011;3122;48.208;11.174;2022-12-15T02:43:08;39.63;;;19.77;;
6177;SDS011;3122;48.208;11.174;2022-12-15T03:03:54;39.90;;;21.27;;
6177;SDS011;3122;48.208;11.174;2022-12-15T03:08:56;41.07;;;20.13;;
6177;SDS011;3122;48.208;11.174;2022-12-15T03:13:57;40.77;;;20.33;;
6177;SDS011;3122;48.208;11.174;2022-12-15T03:18:58;40.00;;;20.27;;
6177;SDS011;3122;48.208;11.174;2022-12-15T03:23:58;40.27;;;20.17;;
6177;SDS011;3122;48.208;11.174;2022-12-15T03:28:59;38.53;;;18.70;;
6177;SDS011;3122;48.208;11.174;2022-12-15T03:33:59;39.10;;;19.50;;
6177;SDS011;3122;48.208;11.174;2022-12-15T03:39:01;40.60;;;21.00;;
6177;SDS011;3122;48.208;11.174;2022-12-15T03:44:02;42.17;;;19.40;;
6177;SDS011;3122;48.208;11.174;2022-12-15T03:49:03;43.23;;;21.33;;
6177;SDS011;3122;48.208;11.174;2022-12-15T03:54:03;38.67;;;19.87;;
6177;SDS011;3122;48.208;11.174;2022-12-15T03:59:04;41.47;;;21.33;;
6177;SDS011;3122;48.208;11.174;2022-12-15T04:04:05;43.43;;;21.67;;
6177;SDS011;3122;48.208;11.174;2022-12-15T04:09:05;44.13;;;23.00;;
6177;SDS011;3122;48.208;11.174;2022-12-15T04:14:07;43.70;;;21.80;;
6177;SDS011;3122;48.208;11.174;2022-12-15T04:19:08;42.40;;;21.87;;
6177;SDS011;3122;48.208;11.174;2022-12-15T04:24:27;47.30;;;23.00;;
6177;SDS011;3122;48.208;11.174;2022-12-15T04:29:46;41.90;;;21.00;;
6177;SDS011;3122;48.208;11.174;2022-12-15T04:35:06;42.60;;;21.10;;
6177;SDS011;3122;48.208;11.174;2022-12-15T04:40:26;43.80;;;22.07;;
6177;SDS011;3122;48.208;11.174;2022-12-15T04:45:45;41.10;;;20.23;;
6177;SDS011;3122;48.208;11.174;2022-12-15T04:51:04;43.03;;;22.87;;
6177;SDS011;3122;48.208;11.174;2022-12-15T04:56:23;48.73;;;22.80;;
6177;SDS011;3122;48.208;11.174;2022-12-15T05:01:43;49.73;;;23.90;;
6177;SDS011;3122;48.208;11.174;2022-12-15T05:07:02;50.03;;;23.87;;
6177;SDS011;3122;48.208;11.174;2022-12-15T05:12:21;49.23;;;23.60;;
6177;SDS011;3122;48.208;11.174;2022-12-15T05:17:41;44.83;;;22.27;;
6177;SDS011;3122;48.208;11.174;2022-12-15T05:23:00;49.63;;;23.43;;
6177;SDS011;3122;48.208;11.174;2022-12-15T05:28:19;46.27;;;22.90;;
6177;SDS011;3122;48.208;11.174;2022-12-15T05:33:38;44.13;;;22.63;;
6177;SDS011;3122;48.208;11.174;2022-12-15T05:38:38;48.67;;;23.87;;
6177;SDS011;3122;48.208;11.174;2022-12-15T05:43:39;44.27;;;24.47;;
6177;SDS011;3122;48.208;11.174;2022-12-15T05:48:40;50.20;;;23.60;;
6177;SDS011;3122;48.208;11.174;2022-12-15T05:53:41;49.73;;;24.17;;
6177;SDS011;3122;48.208;11.174;2022-12-15T05:58:41;45.57;;;22.30;;
6177;SDS011;3122;48.208;11.174;2022-12-15T06:03:42;49.70;;;25.10;;
6177;SDS011;3122;48.208;11.174;2022-12-15T06:08:43;53.60;;;24.40;;
6177;SDS011;3122;48.208;11.174;2022-12-15T06:13:44;46.50;;;23.60;;
6177;SDS011;3122;48.208;11.174;2022-12-15T06:18:46;50.57;;;25.37;;
6177;SDS011;3122;48.208;11.174;2022-12-15T06:23:58;50.57;;;24.40;;
6177;SDS011;3122;48.208;11.174;2022-12-15T06:29:00;40.83;;;21.27;;
6177;SDS011;3122;48.208;11.174;2022-12-15T06:34:02;50.90;;;24.70;;
6177;SDS011;3122;48.208;11.174;2022-12-15T06:39:05;43.83;;;22.10;;
6177;SDS011;3122;48.208;11.174;2022-12-15T06:44:11;46.50;;;23.13;;
6177;SDS011;3122;48.208;11.174;2022-12-15T06:49:13;49.77;;;23.57;;
6177;SDS011;3122;48.208;11.174;2022-12-15T06:54:13;50.30;;;23.80;;
6177;SDS011;3122;48.208;11.174;2022-12-15T06:59:14;46.77;;;24.07;;
6177;SDS011;3122;48.208;11.174;2022-12-15T07:04:14;49.00;;;23.50;;
6177;SDS011;3122;48.208;11.174;2022-12-15T07:09:15;49.73;;;23.90;;
6177;SDS011;3122;48.208;11.174;2022-12-15T07:14:16;48.90;;;23.57;;
6177;SDS011;3122;48.208;11.174;2022-12-15T07:19:16;49.47;;;22.90;;
6177;SDS011;3122;48.208;11.174;2022-12-15T07:24:17;45.67;;;21.97;;
6177;SDS011;3122;48.208;11.174;2022-12-15T07:29:18;45.43;;;22.80;;
6177;SDS011;3122;48.208;11.174;2022-12-15T07:34:19;47.77;;;24.07;;
6177;SDS011;3122;48.208;11.174;2022-12-15T07:39:19;45.60;;;22.97;;
6177;SDS011;3122;48.208;11.174;2022-12-15T07:44:20;46.67;;;23.77;;
6177;SDS011;3122;48.208;11.174;2022-12-15T07:49:20;45.00;;;22.33;;
6177;SDS011;3122;48.208;11.174;2022-12-15T07:54:21;46.93;;;22.20;;
6177;SDS011;3122;48.208;11.174;2022-12-15T07:59:22;50.93;;;23.00;;
6177;SDS011;3122;48.208;11.174;2022-12-15T08:04:23;46.23;;;22.50;;
6177;SDS011;3122;48.208;11.174;2022-12-15T08:09:24;48.37;;;24.13;;
6177;SDS011;3122;48.208;11.174;2022-12-15T08:14:24;46.17;;;22.40;;
6177;SDS011;3122;48.208;11.174;2022-12-15T08:19:27;50.00;;;24.50;;
6177;SDS011;3122;48.208;11.174;2022-12-15T08:24:29;46.70;;;22.90;;
6177;SDS011;3122;48.208;11.174;2022-12-15T08:29:30;50.10;;;24.53;;
6177;SDS011;3122;48.208;11.174;2022-12-15T08:34:30;48.40;;;24.20;;
6177;SDS011;3122;48.208;11.174;2022-12-15T08:39:31;46.30;;;23.23;;
6177;SDS011;3122;48.208;11.174;2022-12-15T08:44:31;47.93;;;22.10;;
6177;SDS011;3122;48.208;11.174;2022-12-15T08:49:32;48.23;;;22.77;;
6177;SDS011;3122;48.208;11.174;2022-12-15T08:54:33;45.90;;;23.20;;
6177;SDS011;3122;48.208;11.174;2022-12-15T08:59:33;45.53;;;22.90;;
6177;SDS011;3122;48.208;11.174;2022-12-15T09:04:34;44.63;;;22.33;;
6177;SDS011;3122;48.208;11.174;2022-12-15T09:09:35;44.10;;;22.00;;
6177;SDS011;3122;48.208;11.174;2022-12-15T09:14:36;43.20;;;23.40;;
6177;SDS011;3122;48.208;11.174;2022-12-15T09:19:37;44.90;;;23.00;;
6177;SDS011;3122;48.208;11.174;2022-12-15T09:24:37;44.10;;;22.13;;
6177;SDS011;3122;48.208;11.174;2022-12-15T09:29:38;43.47;;;21.90;;
6177;SDS011;3122;48.208;11.174;2022-12-15T09:34:39;44.93;;;23.17;;
6177;SDS011;3122;48.208;11.174;2022-12-15T09:39:39;47.33;;;25.00;;
6177;SDS011;3122;48.208;11.174;2022-12-15T09:44:40;45.83;;;23.20;;
6177;SDS011;3122;48.208;11.174;2022-12-15T09:54:59;49.80;;;24.30;;
6177;SDS011;3122;48.208;11.174;2022-12-15T10:10:24;56.30;;;25.60;;
6177;SDS011;3122;48.208;11.174;2022-12-15T10:15:34;49.50;;;25.27;;
6177;SDS011;3122;48.208;11.174;2022-12-15T10:20:40;48.13;;;24.10;;
6177;SDS011;3122;48.208;11.174;2022-12-15T10:26:16;49.70;;;25.97;;
6177;SDS011;3122;48.208;11.174;2022-12-15T10:36:43;50.40;;;25.43;;
6177;SDS011;3122;48.208;11.174;2022-12-15T10:47:30;54.03;;;25.53;;
6177;SDS011;3122;48.208;11.174;2022-12-15T10:52:33;51.17;;;26.00;;
6177;SDS011;3122;48.208;11.174;2022-12-15T10:57:35;78.13;;;35.13;;
6177;SDS011;3122;48.208;11.174;2022-12-15T11:02:35;63.57;;;27.80;;
6177;SDS011;3122;48.208;11.174;2022-12-15T11:07:39;54.53;;;28.00;;
6177;SDS011;3122;48.208;11.174;2022-12-15T11:12:43;60.17;;;27.27;;
6177;SDS011;3122;48.208;11.174;2022-12-15T11:23:20;55.03;;;26.13;;
6177;SDS011;3122;48.208;11.174;2022-12-15T11:28:45;51.00;;;25.40;;
6177;SDS011;3122;48.208;11.174;2022-12-15T11:33:52;50.37;;;24.47;;
6177;SDS011;3122;48.208;11.174;2022-12-15T11:39:00;54.13;;;26.97;;
6177;SDS011;3122;48.208;11.174;2022-12-15T11:54:45;55.87;;;27.13;;
6177;SDS011;3122;48.208;11.174;2022-12-15T12:00:12;52.63;;;25.40;;
6177;SDS011;3122;48.208;11.174;2022-12-15T12:16:02;56.90;;;25.80;;
6177;SDS011;3122;48.208;11.174;2022-12-15T12:21:27;59.87;;;27.70;;
6177;SDS011;3122;48.208;11.174;2022-12-15T12:32:02;57.07;;;27.77;;
6177;SDS011;3122;48.208;11.174;2022-12-15T12:37:16;57.90;;;26.87;;
6177;SDS011;3122;48.208;11.174;2022-12-15T12:42:33;54.03;;;25.80;;
6177;SDS011;3122;48.208;11.174;2022-12-15T12:47:41;55.67;;;26.57;;
6177;SDS011;3122;48.208;11.174;2022-12-15T12:52:50;56.73;;;27.00;;
6177;SDS011;3122;48.208;11.174;2022-12-15T12:57:52;55.73;;;25.70;;
6177;SDS011;3122;48.208;11.174;2022-12-15T13:08:16;59.73;;;26.73;;
6177;SDS011;3122;48.208;11.174;2022-12-15T13:18:53;58.90;;;27.83;;
6177;SDS011;3122;48.208;11.174;2022-12-15T13:24:00;57.10;;;26.27;;
6177;SDS011;3122;48.208;11.174;2022-12-15T13:29:03;65.67;;;29.57;;
6177;SDS011;3122;48.208;11.174;2022-12-15T13:34:10;59.43;;;29.93;;
6177;SDS011;3122;48.208;11.174;2022-12-15T13:49:32;64.53;;;28.47;;
6177;SDS011;3122;48.208;11.174;2022-12-15T13:54:38;60.00;;;26.77;;
6177;SDS011;3122;48.208;11.174;2022-12-15T14:05:20;59.37;;;26.60;;
6177;SDS011;3122;48.208;11.174;2022-12-15T14:10:23;61.17;;;27.97;;
6177;SDS011;3122;48.208;11.174;2022-12-15T14:15:43;63.33;;;27.30;;
6177;SDS011;3122;48.208;11.174;2022-12-15T14:20:46;67.00;;;29.30;;
6177;SDS011;3122;48.208;11.174;2022-12-15T14:26:00;62.80;;;27.90;;
6177;SDS011;3122;48.208;11.174;2022-12-15T14:31:10;66.70;;;27.50;;
6177;SDS011;3122;48.208;11.174;2022-12-15T14:36:19;63.53;;;28.13;;
6177;SDS011;3122;48.208;11.174;2022-12-15T14:41:21;64.80;;;28.77;;
6177;SDS011;3122;48.208;11.174;2022-12-15T14:46:24;63.90;;;27.97;;
6177;SDS011;3122;48.208;11.174;2022-12-15T14:51:26;67.40;;;29.50;;
6177;SDS011;3122;48.208;11.174;2022-12-15T14:56:28;68.67;;;28.60;;
6177;SDS011;3122;48.208;11.174;2022-12-15T15:01:33;73.20;;;29.00;;
6177;SDS011;3122;48.208;11.174;2022-12-15T15:06:39;65.90;;;27.97;;
6177;SDS011;3122;48.208;11.174;2022-12-15T15:11:40;68.70;;;28.80;;
6177;SDS011;3122;48.208;11.174;2022-12-15T15:16:41;61.87;;;27.23;;
6177;SDS011;3122;48.208;11.174;2022-12-15T15:21:44;70.50;;;28.60;;
6177;SDS011;3122;48.208;11.174;2022-12-15T15:26:45;65.13;;;26.83;;
6177;SDS011;3122;48.208;11.174;2022-12-15T15:31:46;66.70;;;28.70;;
6177;SDS011;3122;48.208;11.174;2022-12-15T15:36:46;64.50;;;26.73;;
6177;SDS011;3122;48.208;11.174;2022-12-15T15:41:47;62.70;;;27.23;;
6177;SDS011;3122;48.208;11.174;2022-12-15T15:46:48;62.67;;;27.40;;
6177;SDS011;3122;48.208;11.174;2022-12-15T15:51:50;68.20;;;28.17;;
6177;SDS011;3122;48.208;11.174;2022-12-15T15:56:53;67.13;;;28.50;;
6177;SDS011;3122;48.208;11.174;2022-12-15T16:01:54;63.37;;;28.83;;
6177;SDS011;3122;48.208;11.174;2022-12-15T16:06:55;70.03;;;27.30;;
6177;SDS011;3122;48.208;11.174;2022-12-15T16:11:56;64.80;;;28.40;;
6177;SDS011;3122;48.208;11.174;2022-12-15T16:16:58;64.87;;;27.10;;
6177;SDS011;3122;48.208;11.174;2022-12-15T16:21:58;67.03;;;28.73;;
6177;SDS011;3122;48.208;11.174;2022-12-15T16:26:59;73.47;;;32.67;;
6177;SDS011;3122;48.208;11.174;2022-12-15T16:32:00;74.93;;;33.90;;
6177;SDS011;3122;48.208;11.174;2022-12-15T16:37:00;70.20;;;30.50;;
6177;SDS011;3122;48.208;11.174;2022-12-15T16:42:04;62.20;;;28.00;;
6177;SDS011;3122;48.208;11.174;2022-12-15T16:47:10;66.50;;;28.50;;
6177;SDS011;3122;48.208;11.174;2022-12-15T16:52:16;64.30;;;29.17;;
6177;SDS011;3122;48.208;11.174;2022-12-15T16:57:18;60.60;;;27.80;;
6177;SDS011;3122;48.208;11.174;2022-12-15T17:02:26;61.60;;;26.87;;
6177;SDS011;3122;48.208;11.174;2022-12-15T17:07:28;67.13;;;29.07;;
6177;SDS011;3122;48.208;11.174;2022-12-15T17:12:28;67.50;;;28.80;;
6177;SDS011;3122;48.208;11.174;2022-12-15T17:17:29;64.33;;;28.97;;
6177;SDS011;3122;48.208;11.174;2022-12-15T17:22:29;77.93;;;29.70;;
6177;SDS011;3122;48.208;11.174;2022-12-15T17:27:31;62.67;;;27.90;;
6177;SDS011;3122;48.208;11.174;2022-12-15T17:32:32;62.97;;;28.97;;
6177;SDS011;3122;48.208;11.174;2022-12-15T17:37:32;66.10;;;27.67;;
6177;SDS011;3122;48.208;11.174;2022-12-15T17:42:34;80.03;;;32.53;;
6177;SDS011;3122;48.208;11.174;2022-12-15T17:47:35;86.83;;;36.57;;
6177;SDS011;3122;48.208;11.174;2022-12-15T17:52:35;132.37;;;53.00;;
6177;SDS011;3122;48.208;11.174;2022-12-15T17:57:36;82.10;;;34.90;;
6177;SDS011;3122;48.208;11.174;2022-12-15T18:02:37;83.43;;;35.37;;
6177;SDS011;3122;48.208;11.174;2022-12-15T18:07:38;70.93;;;30.70;;
6177;SDS011;3122;48.208;11.174;2022-12-15T18:12:38;77.27;;;33.70;;
6177;SDS011;3122;48.208;11.174;2022-12-15T18:17:39;79.20;;;30.47;;
6177;SDS011;3122;48.208;11.174;2022-12-15T18:22:39;72.00;;;30.20;;
6177;SDS011;3122;48.208;11.174;2022-12-15T18:27:40;72.37;;;30.67;;
6177;SDS011;3122;48.208;11.174;2022-12-15T18:32:41;74.80;;;31.50;;
6177;SDS011;3122;48.208;11.174;2022-12-15T18:37:43;70.27;;;29.60;;
6177;SDS011;3122;48.208;11.174;2022-12-15T18:42:44;74.83;;;30.30;;
6177;SDS011;3122;48.208;11.174;2022-12-15T18:47:46;78.30;;;30.27;;
6177;SDS011;3122;48.208;11.174;2022-12-15T18:52:47;107.30;;;40.87;;
6177;SDS011;3122;48.208;11.174;2022-12-15T18:57:55;91.53;;;33.93;;
6177;SDS011;3122;48.208;11.174;2022-12-15T19:02:57;149.37;;;53.17;;
6177;SDS011;3122;48.208;11.174;2022-12-15T19:08:02;154.10;;;53.60;;
6177;SDS011;3122;48.208;11.174;2022-12-15T19:13:11;95.43;;;37.30;;
6177;SDS011;3122;48.208;11.174;2022-12-15T19:18:13;91.57;;;37.67;;
6177;SDS011;3122;48.208;11.174;2022-12-15T19:23:33;155.30;;;58.97;;
6177;SDS011;3122;48.208;11.174;2022-12-15T19:28:34;119.40;;;42.60;;
6177;SDS011;3122;48.208;11.174;2022-12-15T19:33:34;98.20;;;41.27;;
6177;SDS011;3122;48.208;11.174;2022-12-15T19:38:35;95.10;;;35.30;;
6177;SDS011;3122;48.208;11.174;2022-12-15T19:43:36;99.40;;;40.33;;
6177;SDS011;3122;48.208;11.174;2022-12-15T19:48:37;110.47;;;38.73;;
6177;SDS011;3122;48.208;11.174;2022-12-15T19:53:37;124.53;;;45.33;;
6177;SDS011;3122;48.208;11.174;2022-12-15T19:58:39;118.07;;;47.53;;
6177;SDS011;3122;48.208;11.174;2022-12-15T20:03:41;113.27;;;43.00;;
6177;SDS011;3122;48.208;11.174;2022-12-15T20:08:44;147.70;;;50.00;;
6177;SDS011;3122;48.208;11.174;2022-12-15T20:13:47;102.33;;;39.90;;
6177;SDS011;3122;48.208;11.174;2022-12-15T20:18:52;134.70;;;56.40;;
6177;SDS011;3122;48.208;11.174;2022-12-15T20:23:55;117.73;;;47.70;;
6177;SDS011;3122;48.208;11.174;2022-12-15T20:28:57;97.53;;;38.57;;
6177;SDS011;3122;48.208;11.174;2022-12-15T20:33:58;83.63;;;36.97;;
6177;SDS011;3122;48.208;11.174;2022-12-15T20:38:58;92.23;;;37.57;;
6177;SDS011;3122;48.208;11.174;2022-12-15T20:43:59;74.87;;;30.60;;
6177;SDS011;3122;48.208;11.174;2022-12-15T20:48:59;71.63;;;29.50;;
6177;SDS011;3122;48.208;11.174;2022-12-15T20:54:01;73.73;;;30.80;;
6177;SDS011;3122;48.208;11.174;2022-12-15T20:59:02;60.93;;;25.13;;
6177;SDS011;3122;48.208;11.174;2022-12-15T21:04:06;67.40;;;24.87;;
6177;SDS011;3122;48.208;11.174;2022-12-15T21:09:24;84.13;;;31.90;;
6177;SDS011;3122;48.208;11.174;2022-12-15T21:14:25;59.60;;;24.20;;
6177;SDS011;3122;48.208;11.174;2022-12-15T21:19:25;53.40;;;22.50;;
6177;SDS011;3122;48.208;11.174;2022-12-15T21:24:26;54.40;;;24.50;;
6177;SDS011;3122;48.208;11.174;2022-12-15T21:29:28;62.27;;;23.03;;
6177;SDS011;3122;48.208;11.174;2022-12-15T21:34:29;44.43;;;21.57;;
6177;SDS011;3122;48.208;11.174;2022-12-15T21:39:34;54.07;;;21.60;;
6177;SDS011;3122;48.208;11.174;2022-12-15T21:44:35;49.37;;;20.53;;
6177;SDS011;3122;48.208;11.174;2022-12-15T21:49:36;47.23;;;19.47;;
6177;SDS011;3122;48.208;11.174;2022-12-15T21:54:36;73.80;;;26.50;;
6177;SDS011;3122;48.208;11.174;2022-12-15T21:59:37;65.73;;;30.23;;
6177;SDS011;3122;48.208;11.174;2022-12-15T22:04:37;40.93;;;19.63;;
6177;SDS011;3122;48.208;11.174;2022-12-15T22:09:38;70.63;;;30.00;;
6177;SDS011;3122;48.208;11.174;2022-12-15T22:14:38;48.20;;;21.30;;
6177;SDS011;3122;48.208;11.174;2022-12-15T22:19:39;42.13;;;18.33;;
6177;SDS011;3122;48.208;11.174;2022-12-15T22:24:40;32.00;;;15.30;;
6177;SDS011;3122;48.208;11.174;2022-12-15T22:29:40;34.20;;;15.67;;
6177;SDS011;3122;48.208;11.174;2022-12-15T22:34:41;32.00;;;14.67;;
6177;SDS011;3122;48.208;11.174;2022-12-15T22:39:41;29.30;;;13.33;;
6177;SDS011;3122;48.208;11.174;2022-12-15T22:44:42;27.10;;;12.83;;
6177;SDS011;3122;48.208;11.174;2022-12-15T22:49:44;269.13;;;85.17;;
6177;SDS011;3122;48.208;11.174;2022-12-15T22:54:44;74.17;;;32.63;;
6177;SDS011;3122;48.208;11.174;2022-12-15T22:59:51;36.67;;;16.30;;
6177;SDS011;3122;48.208;11.174;2022-12-15T23:04:59;30.43;;;15.73;;
6177;SDS011;3122;48.208;11.174;2022-12-15T23:10:00;30.90;;;16.03;;
6177;SDS011;3122;48.208;11.174;2022-12-15T23:15:22;35.43;;;16.60;;
6177;SDS011;3122;48.208;11.174;2022-12-15T23:20:43;28.97;;;14.57;;
6177;SDS011;3122;48.208;11.174;2022-12-15T23:25:44;27.90;;;14.10;;
6177;SDS011;3122;48.208;11.174;2022-12-15T23:30:49;29.03;;;14.13;;
6177;SDS011;3122;48.208;11.174;2022-12-15T23:35:54;26.70;;;13.10;;
6177;SDS011;3122;48.208;11.174;2022-12-15T23:40:56;25.30;;;13.10;;
6177;SDS011;3122;48.208;11.174;2022-12-15T23:45:58;24.17;;;12.43;;
